createdAt,value
2019-02-27T09:12:51.712Z,11.90
2019-02-27T09:15:23.538Z,6.78
2019-02-27T09:17:54.756Z,5.12
2019-02-27T09:20:27.550Z,4.47
2019-02-27T09:22:59.078Z,4.34
2019-02-27T09:25:30.207Z,4.32
2019-02-27T09:28:03.441Z,4.30
2019-02-27T09:30:34.804Z,4.37
2019-02-27T09:33:06.023Z,4.42
2019-02-27T09:35:40.779Z,4.38
2019-02-27T09:38:13.637Z,4.32
2019-02-27T09:40:44.901Z,4.45
2019-02-27T09:43:17.794Z,4.57
2019-02-27T09:45:51.331Z,4.43
2019-02-27T09:48:22.839Z,4.36
2019-02-27T09:50:54.248Z,4.39
2019-02-27T09:53:28.285Z,4.47
2019-02-27T09:56:05.106Z,4.38
2019-02-27T09:58:36.825Z,4.30
2019-02-27T10:01:13.834Z,4.35
2019-02-27T10:03:45.254Z,4.35
2019-02-27T10:06:18.666Z,4.19
2019-02-27T10:08:50.486Z,4.39
2019-02-27T10:11:22.450Z,4.75
2019-02-27T10:13:54.338Z,4.79
2019-02-27T10:16:25.823Z,4.97
2019-02-27T10:18:57.737Z,4.97
2019-02-27T10:21:33.943Z,5.46
2019-02-27T10:24:06.038Z,5.46
2019-02-27T10:26:39.792Z,5.26
2019-02-27T10:29:13.420Z,5.26
2019-02-27T10:31:44.920Z,4.93
2019-02-27T10:34:19.152Z,4.83
2019-02-27T10:36:51.695Z,5.16
2019-02-27T10:39:23.267Z,5.52
2019-02-27T10:41:54.951Z,5.63
2019-02-27T10:44:26.441Z,5.54
2019-02-27T10:47:00.678Z,5.18
2019-02-27T10:49:32.647Z,5.08
2019-02-27T10:52:04.002Z,4.89
2019-02-27T10:54:37.056Z,4.45
2019-02-27T10:57:08.708Z,4.32
2019-02-27T10:59:40.026Z,4.36
2019-02-27T11:02:12.395Z,4.59
2019-02-27T11:04:46.843Z,4.68
2019-02-27T11:07:18.507Z,5.00
2019-02-27T11:09:49.883Z,4.99
2019-02-27T11:12:21.401Z,4.78
2019-02-27T11:14:52.778Z,4.76
2019-02-27T11:17:24.354Z,4.73
2019-02-27T11:19:57.512Z,4.82
2019-02-27T11:22:31.386Z,4.76
2019-02-27T11:25:03.790Z,4.76
2019-02-27T11:27:36.371Z,4.76
2019-02-27T11:30:14.320Z,4.76
2019-02-27T11:32:45.483Z,4.69
2019-02-27T11:35:16.835Z,4.69
2019-02-27T11:37:48.129Z,4.62
2019-02-27T11:40:21.723Z,4.49
2019-02-27T11:42:53.172Z,4.59
2019-02-27T11:45:25.822Z,4.52
2019-02-27T11:47:57.328Z,4.48
2019-02-27T11:50:28.661Z,4.43
2019-02-27T11:53:02.715Z,4.43
2019-02-27T11:55:33.292Z,4.63
2019-02-27T12:01:08.375Z,4.50
2019-02-27T12:03:48.120Z,4.44
2019-02-27T12:06:24.355Z,4.37
2019-02-27T12:09:01.094Z,4.41
2019-02-27T12:11:37.452Z,4.30
2019-02-27T12:14:21.209Z,4.24
2019-02-27T12:16:58.220Z,4.24
2019-02-27T12:19:29.510Z,4.46
2019-02-27T12:22:01.451Z,4.43
2019-02-27T12:24:33.764Z,4.33
2019-02-27T12:27:07.399Z,4.22
2019-02-27T12:29:40.150Z,4.12
2019-02-27T12:32:11.556Z,4.07
2019-02-27T12:34:42.805Z,4.05
2019-02-27T12:37:23.909Z,3.97
2019-02-27T12:39:49.647Z,3.99
2019-02-27T12:42:21.142Z,4.02
2019-02-27T12:44:54.567Z,4.01
2019-02-27T12:47:26.244Z,3.93
2019-02-27T12:49:57.771Z,3.93
2019-02-27T12:52:29.415Z,3.77
2019-02-27T12:55:01.782Z,3.77
2019-02-27T12:57:35.049Z,3.86
2019-02-27T13:00:13.879Z,3.86
2019-02-27T13:02:45.386Z,3.80
2019-02-27T13:05:18.403Z,3.82
2019-02-27T13:07:50.080Z,3.95
2019-02-27T13:10:23.873Z,3.91
2019-02-27T13:12:55.351Z,4.04
2019-02-27T13:15:28.932Z,4.02
2019-02-27T13:18:00.449Z,4.05
2019-02-27T13:20:34.207Z,4.07
2019-02-27T13:23:05.697Z,4.07
2019-02-27T13:25:37.498Z,4.05
2019-02-27T13:28:08.876Z,4.03
2019-02-27T13:30:41.570Z,4.03
2019-02-27T13:33:13.412Z,4.00
2019-02-27T13:35:45.447Z,4.00
2019-02-27T13:38:18.376Z,4.03
2019-02-27T13:40:50.126Z,4.00
2019-02-27T13:43:24.391Z,4.00
2019-02-27T13:45:55.206Z,4.04
2019-02-27T13:48:26.692Z,4.08
2019-02-27T13:50:59.352Z,4.00
2019-02-27T13:53:31.996Z,3.89
2019-02-27T13:56:03.208Z,3.84
2019-02-27T13:58:36.620Z,3.79
2019-02-27T14:01:08.273Z,3.76
2019-02-27T14:03:39.653Z,3.69
2019-02-27T14:06:11.035Z,3.69
2019-02-27T14:08:43.862Z,3.68
2019-02-27T14:11:15.465Z,3.67
2019-02-27T14:13:47.036Z,3.67
2019-02-27T14:16:18.381Z,3.38
2019-02-27T14:18:50.594Z,3.35
2019-02-27T14:21:22.174Z,3.20
2019-02-27T14:23:53.587Z,3.20
2019-02-27T14:26:25.143Z,3.16
2019-02-27T14:28:56.836Z,3.16
2019-02-27T14:31:33.469Z,3.07
2019-02-27T14:34:05.243Z,3.03
2019-02-27T14:36:39.397Z,3.02
2019-02-27T14:39:15.079Z,3.03
2019-02-27T14:41:48.773Z,2.94
2019-02-27T14:44:21.070Z,2.94
2019-02-27T14:46:53.758Z,2.98
2019-02-27T14:49:27.277Z,3.04
2019-02-27T14:52:02.852Z,2.98
2019-02-27T14:54:52.634Z,3.00
2019-02-27T14:57:20.390Z,3.01
2019-02-27T14:59:55.913Z,3.01
2019-02-27T15:02:27.651Z,2.92
2019-02-27T15:04:58.993Z,2.93
2019-02-27T15:07:30.446Z,2.92
2019-02-27T15:10:01.876Z,2.91
2019-02-27T15:12:34.781Z,2.88
2019-02-27T15:15:10.168Z,2.91
2019-02-27T15:17:41.700Z,2.84
2019-02-27T15:20:18.207Z,2.90
2019-02-27T15:22:52.460Z,2.82
2019-02-27T15:25:22.872Z,2.80
2019-02-27T15:27:58.792Z,2.77
2019-02-27T15:30:32.358Z,2.78
2019-02-27T15:33:05.379Z,2.76
2019-02-27T15:35:37.400Z,2.74
2019-02-27T15:38:11.768Z,2.70
2019-02-27T15:40:42.811Z,2.65
2019-02-27T15:43:17.314Z,2.57
2019-02-27T15:45:49.118Z,2.59
2019-02-27T15:48:20.579Z,2.58
2019-02-27T15:50:57.209Z,2.57
2019-02-27T15:53:31.211Z,2.57
2019-02-27T15:56:05.458Z,2.55
2019-02-27T15:58:36.655Z,2.55
2019-02-27T16:01:09.744Z,2.52
2019-02-27T16:03:42.038Z,2.54
2019-02-27T16:06:16.413Z,2.55
2019-02-27T16:08:48.019Z,2.57
2019-02-27T16:11:20.060Z,2.57
2019-02-27T16:13:51.523Z,2.58
2019-02-27T16:16:23.514Z,2.59
2019-02-27T16:18:56.098Z,2.56
2019-02-27T16:21:27.486Z,2.57
2019-02-27T16:24:00.715Z,2.56
2019-02-27T16:26:32.708Z,2.55
2019-02-27T16:29:04.632Z,2.55
2019-02-27T16:31:37.131Z,2.51
2019-02-27T16:34:09.857Z,2.56
2019-02-27T16:36:41.215Z,2.58
2019-02-27T16:39:13.104Z,2.71
2019-02-27T16:41:45.187Z,2.66
2019-02-27T16:44:21.567Z,2.67
2019-02-27T16:46:51.169Z,2.71
2019-02-27T16:49:22.714Z,2.67
2019-02-27T16:51:54.330Z,2.64
2019-02-27T16:54:27.618Z,2.71
2019-02-27T16:56:59.924Z,2.68
2019-02-27T16:59:31.300Z,2.66
2019-02-27T17:02:04.757Z,2.64
2019-02-27T17:04:36.642Z,2.67
2019-02-27T17:07:09.918Z,2.67
2019-02-27T17:09:43.884Z,2.70
2019-02-27T17:12:16.367Z,2.68
2019-02-27T17:14:48.861Z,2.69
2019-02-27T17:17:20.853Z,2.72
2019-02-27T17:19:53.114Z,2.71
2019-02-27T17:22:24.700Z,2.72
2019-02-27T17:24:57.098Z,2.78
2019-02-27T17:27:31.415Z,2.80
2019-02-27T17:30:02.766Z,2.79
2019-02-27T17:32:34.822Z,2.74
2019-02-27T17:35:06.981Z,2.77
2019-02-27T17:37:39.997Z,2.76
2019-02-27T17:40:14.690Z,2.71
2019-02-27T17:42:53.186Z,2.65
2019-02-27T17:45:26.487Z,2.54
2019-02-27T17:47:57.755Z,2.54
2019-02-27T17:50:31.677Z,2.52
2019-02-27T17:53:02.470Z,2.49
2019-02-27T17:55:34.000Z,2.43
2019-02-27T17:58:05.429Z,2.42
2019-02-27T18:00:51.126Z,2.37
2019-02-27T18:03:20.971Z,2.36
2019-02-27T18:05:52.796Z,2.39
2019-02-27T18:08:24.375Z,2.37
2019-02-27T18:10:55.821Z,2.38
2019-02-27T18:13:27.534Z,2.32
2019-02-27T18:15:59.331Z,2.31
2019-02-27T18:18:30.811Z,2.33
2019-02-27T18:21:02.201Z,2.32
2019-02-27T18:23:37.056Z,2.27
2019-02-27T18:26:15.652Z,2.24
2019-02-27T18:28:45.748Z,2.32
2019-02-27T18:31:17.661Z,2.26
2019-02-27T18:33:50.287Z,2.16
2019-02-27T18:36:22.430Z,2.21
2019-02-27T18:38:54.518Z,2.11
2019-02-27T18:41:26.119Z,2.09
2019-02-27T18:43:58.176Z,2.09
2019-02-27T18:46:30.063Z,2.15
2019-02-27T18:49:01.601Z,2.16
2019-02-27T18:51:33.978Z,2.12
2019-02-27T18:54:05.395Z,2.00
2019-02-27T18:56:40.290Z,1.97
2019-02-27T18:59:10.115Z,1.98
2019-02-27T19:01:45.232Z,2.05
2019-02-27T19:04:15.526Z,1.97
2019-02-27T19:06:47.084Z,1.90
2019-02-27T19:09:18.581Z,1.88
2019-02-27T19:11:50.888Z,1.83
2019-02-27T19:14:24.221Z,1.76
2019-02-27T19:16:55.939Z,1.76
2019-02-27T19:19:27.456Z,1.76
2019-02-27T19:21:59.370Z,1.68
2019-02-27T19:24:32.514Z,1.55
2019-02-27T19:27:04.330Z,1.48
2019-02-27T19:29:36.961Z,1.58
2019-02-27T19:32:09.669Z,1.59
2019-02-27T19:34:44.430Z,1.61
2019-02-27T19:37:18.788Z,1.60
2019-02-27T19:39:50.326Z,1.55
2019-02-27T19:42:22.918Z,1.53
2019-02-27T19:44:56.289Z,1.55
2019-02-27T19:47:28.196Z,1.53
2019-02-27T19:50:02.611Z,1.65
2019-02-27T19:52:35.153Z,1.68
2019-02-27T19:55:08.208Z,1.69
2019-02-27T19:57:42.479Z,1.79
2019-02-27T20:00:33.588Z,1.80
2019-02-27T20:03:01.798Z,1.73
2019-02-27T20:05:33.407Z,1.64
2019-02-27T20:08:09.932Z,1.57
2019-02-27T20:10:38.103Z,1.55
2019-02-27T20:13:09.575Z,1.46
2019-02-27T20:15:42.799Z,1.42
2019-02-27T20:18:17.373Z,1.52
2019-02-27T20:20:48.727Z,1.49
2019-02-27T20:23:20.196Z,1.44
2019-02-27T20:25:51.728Z,1.39
2019-02-27T20:28:24.366Z,1.33
2019-02-27T20:30:55.735Z,1.23
2019-02-27T20:33:27.349Z,1.16
2019-02-27T20:36:00.302Z,1.12
2019-02-27T20:38:32.200Z,1.17
2019-02-27T20:41:06.016Z,1.13
2019-02-27T20:43:38.072Z,1.22
2019-02-27T20:46:10.412Z,1.24
2019-02-27T20:48:42.108Z,1.28
2019-02-27T20:51:13.837Z,1.21
2019-02-27T20:53:45.473Z,1.21
2019-02-27T20:56:16.695Z,1.38
2019-02-27T20:58:51.045Z,1.29
2019-02-27T21:01:21.416Z,1.32
2019-02-27T21:03:52.833Z,1.29
2019-02-27T21:06:24.395Z,1.33
2019-02-27T21:08:55.685Z,1.25
2019-02-27T21:11:29.807Z,1.27
2019-02-27T21:14:02.514Z,1.30
2019-02-27T21:16:34.417Z,1.26
2019-02-27T21:19:05.835Z,1.28
2019-02-27T21:21:37.127Z,1.28
2019-02-27T21:24:09.454Z,1.26
2019-02-27T21:26:40.842Z,1.25
2019-02-27T21:29:12.880Z,1.24
2019-02-27T21:31:44.257Z,1.24
2019-02-27T21:34:19.294Z,1.23
2019-02-27T21:36:49.016Z,1.22
2019-02-27T21:39:22.511Z,1.22
2019-02-27T21:41:53.726Z,1.30
2019-02-27T21:44:25.864Z,1.33
2019-02-27T21:46:59.383Z,1.32
2019-02-27T21:49:32.241Z,1.30
2019-02-27T21:52:04.067Z,1.31
2019-02-27T21:54:39.277Z,1.26
2019-02-27T21:57:11.737Z,1.12
2019-02-27T21:59:43.368Z,0.92
2019-02-27T22:02:16.017Z,0.83
2019-02-27T22:04:47.874Z,0.78
2019-02-27T22:07:19.461Z,0.79
2019-02-27T22:09:51.196Z,0.73
2019-02-27T22:12:22.602Z,0.67
2019-02-27T22:14:54.022Z,0.59
2019-02-27T22:17:26.664Z,0.53
2019-02-27T22:19:58.185Z,0.57
2019-02-27T22:22:30.030Z,0.54
2019-02-27T22:25:01.276Z,0.44
2019-02-27T22:27:32.535Z,0.42
2019-02-27T22:30:06.481Z,0.37
2019-02-27T22:32:37.792Z,0.37
2019-02-27T22:35:10.759Z,0.34
2019-02-27T22:37:42.518Z,0.26
2019-02-27T22:40:18.796Z,0.20
2019-02-27T22:42:50.189Z,0.24
2019-02-27T22:45:21.590Z,0.26
2019-02-27T22:47:54.628Z,0.36
2019-02-27T22:50:26.181Z,0.31
2019-02-27T22:52:57.556Z,0.29
2019-02-27T22:55:28.768Z,0.30
2019-02-27T22:58:00.006Z,0.38
2019-02-27T23:00:51.598Z,0.37
2019-02-27T23:03:33.358Z,0.32
2019-02-27T23:06:04.897Z,0.27
2019-02-27T23:08:36.223Z,0.25
2019-02-27T23:11:07.442Z,0.28
2019-02-27T23:13:38.905Z,0.27
2019-02-27T23:16:10.192Z,0.25
2019-02-27T23:18:41.498Z,0.28
2019-02-27T23:21:12.897Z,0.28
2019-02-27T23:23:45.248Z,0.27
2019-02-27T23:26:19.874Z,0.21
2019-02-27T23:28:49.642Z,0.28
2019-02-27T23:31:23.310Z,0.40
2019-02-27T23:33:54.754Z,0.44
2019-02-27T23:36:26.105Z,0.40
2019-02-27T23:38:57.401Z,0.37
2019-02-27T23:41:29.139Z,0.30
2019-02-27T23:44:00.495Z,0.28
2019-02-27T23:46:32.218Z,0.26
2019-02-27T23:49:06.525Z,0.20
2019-02-27T23:51:36.607Z,0.25
2019-02-27T23:54:08.058Z,0.28
2019-02-27T23:56:39.387Z,0.25
2019-02-27T23:59:10.898Z,0.40
